Time;durP1;ratioP1;P1;durP2;ratioP2;P2;SDS_P1;SDS_P2;PMS_P1;PMS_P2;Temp;Humidity;BMP_temperature;BMP_pressure;BME280_temperature;BME280_humidity;BME280_pressure;Samples;Min_cycle;Max_cycle;Signal;HPM_P1;HPM_P2
2022/05/25 00:00:41;;;;;;;;;8.00;7.75;;;;;13.45;65.50;101142.38;5032595;28;9976;-65
2022/05/25 00:03:08;;;;;;;;;10.50;10.50;;;;;13.45;65.38;101142.38;5031712;28;9898;-65
2022/05/25 00:05:35;;;;;;;;;7.75;6.75;;;;;13.44;65.57;101138.00;5032202;28;10084;-65
2022/05/25 00:08:03;;;;;;;;;10.50;10.50;;;;;13.42;65.52;101140.09;5044615;28;9915;-65
2022/05/25 00:10:30;;;;;;;;;10.50;10.50;;;;;13.41;65.52;101146.50;5050578;28;9910;-65
2022/05/25 00:12:57;;;;;;;;;13.00;10.25;;;;;13.39;65.43;101145.91;5037699;28;9906;-64
2022/05/25 00:15:24;;;;;;;;;11.50;11.00;;;;;13.34;65.43;101143.81;5039368;28;10099;-64
2022/05/25 00:17:50;;;;;;;;;11.25;11.00;;;;;13.29;65.63;101146.31;5051621;28;9916;-64
2022/05/25 00:20:18;;;;;;;;;11.00;9.75;;;;;13.24;65.66;101144.19;5052036;28;9978;-65
2022/05/25 00:22:50;;;;;;;;;9.75;7.50;;;;;13.22;65.90;101140.84;5051874;28;10235;-64
2022/05/25 00:25:21;;;;;;;;;8.50;8.25;;;;;13.22;65.96;101143.56;5051994;28;10007;-64
2022/05/25 00:27:48;;;;;;;;;18.50;9.75;;;;;13.20;65.93;101148.31;5051448;28;10007;-63
2022/05/25 00:30:16;;;;;;;;;8.75;8.25;;;;;13.20;66.10;101144.78;5040062;28;10147;-64
2022/05/25 00:32:43;;;;;;;;;10.00;10.00;;;;;13.19;65.93;101152.06;5042917;28;10182;-65
2022/05/25 00:35:13;;;;;;;;;10.00;9.75;;;;;13.20;66.01;101152.88;5051600;28;10169;-67
2022/05/25 00:37:41;;;;;;;;;8.50;8.50;;;;;13.17;66.12;101148.75;5051303;28;9987;-66
2022/05/25 00:40:11;;;;;;;;;8.75;8.50;;;;;13.15;66.27;101153.50;5051633;28;10516;-66
2022/05/25 00:42:38;;;;;;;;;9.00;9.00;;;;;13.14;66.17;101157.25;5051244;28;10216;-65
2022/05/25 00:45:07;;;;;;;;;8.00;6.25;;;;;13.12;66.35;101162.00;5051533;28;10755;-63
2022/05/25 00:47:37;;;;;;;;;8.75;8.75;;;;;13.10;66.44;101153.28;5049016;28;10081;-64
2022/05/25 00:50:04;;;;;;;;;9.75;9.75;;;;;13.10;66.41;101156.00;5034683;28;10035;-65
2022/05/25 00:52:31;;;;;;;;;8.00;5.50;;;;;13.10;66.61;101158.69;5051162;28;9918;-64
2022/05/25 00:55:04;;;;;;;;;5.50;5.50;;;;;13.07;66.49;101164.50;5051270;28;9924;-66
2022/05/25 00:57:35;;;;;;;;;7.50;7.50;;;;;13.07;66.55;101164.50;5050617;28;9894;-66
2022/05/25 01:00:21;;;;;;;;;7.50;7.00;;;;;13.08;66.55;101164.31;5051290;28;9817;-63
2022/05/25 01:02:57;;;;;;;;;4.75;4.75;;;;;13.08;66.92;101171.56;5049738;28;10564;-64
2022/05/25 01:05:37;;;;;;;;;7.50;6.00;;;;;13.08;66.53;101166.16;5051179;28;9619;-65
2022/05/25 01:08:10;;;;;;;;;7.00;5.75;;;;;13.05;66.81;101162.00;5050398;28;9853;-64
2022/05/25 01:10:48;;;;;;;;;4.00;4.00;;;;;13.06;66.48;101160.97;5051104;28;10537;-65
2022/05/25 01:13:20;;;;;;;;;7.00;6.00;;;;;13.06;66.58;101168.25;5050180;28;9767;-65
2022/05/25 01:16:22;;;;;;;;;6.00;6.00;;;;;13.04;66.35;101173.00;5050668;28;9927;-65
2022/05/25 01:19:30;;;;;;;;;7.00;5.75;;;;;12.98;66.73;101169.25;5011649;28;10018;-64
2022/05/25 01:22:11;;;;;;;;;8.00;6.00;;;;;12.97;66.79;101175.69;5036313;28;9804;-64
2022/05/25 01:24:59;;;;;;;;;6.00;6.00;;;;;12.97;66.89;101177.56;5050556;28;10001;-64
2022/05/25 01:27:36;;;;;;;;;5.75;5.75;;;;;12.96;66.90;101175.88;5040749;28;10002;-65
2022/05/25 01:30:08;;;;;;;;;8.00;6.75;;;;;12.93;67.12;101179.00;5030833;28;9906;-63
2022/05/25 01:32:49;;;;;;;;;9.00;8.50;;;;;12.92;66.94;101178.16;5041077;28;10122;-63
2022/05/25 01:35:25;;;;;;;;;5.50;5.50;;;;;12.93;67.02;101173.59;5050015;28;10253;-64
2022/05/25 01:38:04;;;;;;;;;5.00;5.00;;;;;12.94;66.98;101170.69;5049820;28;10011;-64
2022/05/25 01:40:41;;;;;;;;;5.75;5.75;;;;;12.96;66.94;101179.41;5050419;28;9863;-64
2022/05/25 01:43:17;;;;;;;;;8.00;8.00;;;;;12.94;66.76;101178.81;5050510;28;10053;-64
2022/05/25 01:45:49;;;;;;;;;8.25;8.00;;;;;12.91;66.96;101179.19;5050396;28;10194;-64
2022/05/25 01:48:19;;;;;;;;;4.00;4.00;;;;;12.94;67.00;101177.97;5050017;28;9999;-64
2022/05/25 01:51:00;;;;;;;;;8.00;4.75;;;;;12.94;67.12;101175.28;5049811;28;9836;-65
2022/05/25 01:53:38;;;;;;;;;4.00;4.00;;;;;12.92;66.86;101177.31;5050107;28;9928;-64
2022/05/25 01:56:08;;;;;;;;;4.25;3.00;;;;;12.91;67.11;101191.88;5050433;28;9954;-64
2022/05/25 01:58:42;;;;;;;;;5.00;5.00;;;;;12.92;67.23;101188.13;5048606;28;10578;-64
2022/05/25 02:01:10;;;;;;;;;3.00;3.00;;;;;12.91;67.30;101187.31;5048926;28;9936;-64
2022/05/25 02:06:55;;;;;;;;;4.50;3.25;;;;;12.91;67.22;101197.28;5030733;28;9991;-64
2022/05/25 02:09:25;;;;;;;;;6.00;6.00;;;;;12.90;67.31;101187.50;5031178;28;9980;-65
2022/05/25 02:12:08;;;;;;;;;5.50;5.50;;;;;12.88;67.23;101187.69;5035136;28;9834;-65
2022/05/25 02:14:49;;;;;;;;;5.00;4.50;;;;;12.87;67.43;101188.75;5043986;28;10578;-65
2022/05/25 02:17:41;;;;;;;;;6.50;6.50;;;;;12.84;67.29;101192.69;5049167;28;9840;-65
2022/05/25 02:20:14;;;;;;;;;8.75;6.00;;;;;12.81;67.55;101193.09;5033090;28;9808;-66
2022/05/25 02:22:47;;;;;;;;;6.00;6.00;;;;;12.77;67.68;101189.13;5050422;28;9936;-65
2022/05/25 02:25:30;;;;;;;;;6.75;6.75;;;;;12.79;67.82;101194.31;5050936;28;9838;-65
2022/05/25 02:28:13;;;;;;;;;6.25;5.75;;;;;12.81;67.98;101197.66;5044161;28;9816;-67
2022/05/25 02:30:46;;;;;;;;;8.50;8.25;;;;;12.79;67.65;101192.44;5034054;28;10002;-65
2022/05/25 02:33:17;;;;;;;;;7.00;7.00;;;;;12.79;67.45;101195.13;5050562;28;9895;-65
2022/05/25 02:35:46;;;;;;;;;9.75;6.00;;;;;12.79;68.01;101197.84;5054294;28;9842;-66
2022/05/25 02:38:14;;;;;;;;;8.75;8.75;;;;;12.77;67.90;101199.94;5053227;28;9983;-66
2022/05/25 02:40:41;;;;;;;;;12.00;11.50;;;;;12.70;68.13;101196.34;5053726;28;10082;-66
2022/05/25 02:43:09;;;;;;;;;7.00;7.00;;;;;12.66;68.43;101200.47;5053593;28;10169;-66
2022/05/25 02:45:37;;;;;;;;;10.50;10.50;;;;;12.62;68.50;101200.03;5038586;28;9924;-66
2022/05/25 02:48:04;;;;;;;;;3.00;2.50;;;;;12.64;68.35;101207.97;5048305;28;10151;-66
2022/05/25 02:50:31;;;;;;;;;7.25;7.25;;;;;12.62;68.74;101205.44;5053609;28;10137;-66
2022/05/25 02:52:57;;;;;;;;;8.00;8.00;;;;;12.59;68.73;101207.69;5053313;28;10131;-65
2022/05/25 02:55:24;;;;;;;;;12.25;12.25;;;;;12.57;68.58;101212.47;5053771;28;10149;-65
2022/05/25 02:57:51;;;;;;;;;10.00;9.75;;;;;12.56;68.62;101208.13;5051784;28;10325;-66
2022/05/25 03:00:17;;;;;;;;;9.00;9.00;;;;;12.54;68.78;101211.00;5053228;28;10296;-68
2022/05/25 03:02:44;;;;;;;;;9.00;9.00;;;;;12.56;69.02;101205.41;5045752;28;10154;-64
2022/05/25 03:05:12;;;;;;;;;9.00;8.00;;;;;12.55;69.04;101203.72;5053404;28;10288;-63
2022/05/25 03:07:39;;;;;;;;;9.50;9.25;;;;;12.57;68.82;101204.38;5052835;28;10077;-65
2022/05/25 03:10:06;;;;;;;;;8.00;8.00;;;;;12.56;69.16;101208.13;5053377;28;9998;-65
2022/05/25 03:12:32;;;;;;;;;8.75;8.75;;;;;12.55;69.12;101215.38;5053083;28;10139;-65
2022/05/25 03:14:59;;;;;;;;;6.75;6.75;;;;;12.54;69.39;101208.31;5053227;28;10275;-64
2022/05/25 03:17:25;;;;;;;;;7.00;7.00;;;;;12.55;69.39;101214.53;5048461;28;10306;-64
2022/05/25 03:19:54;;;;;;;;;5.00;5.00;;;;;12.56;69.61;101222.44;5053170;28;10003;-64
2022/05/25 03:22:22;;;;;;;;;12.50;12.00;;;;;12.56;69.65;101222.44;5053087;28;9926;-65
2022/05/25 03:24:49;;;;;;;;;9.50;6.75;;;;;12.57;69.31;101223.28;5053032;28;10231;-64
2022/05/25 03:27:17;;;;;;;;;10.25;8.50;;;;;12.55;69.45;101226.16;5043781;28;10155;-66
2022/05/25 03:29:43;;;;;;;;;13.00;12.50;;;;;12.52;69.80;101223.06;5052914;28;10062;-65
2022/05/25 03:32:11;;;;;;;;;8.00;7.75;;;;;12.50;70.09;101228.63;5052720;28;10267;-66
2022/05/25 03:34:37;;;;;;;;;15.25;14.00;;;;;12.51;69.80;101227.59;5052747;28;10161;-65
2022/05/25 03:37:04;;;;;;;;;12.25;11.75;;;;;12.49;70.19;101234.25;5051434;28;10283;-63
2022/05/25 03:39:30;;;;;;;;;15.25;11.50;;;;;12.49;70.43;101231.53;5052474;28;10244;-67
2022/05/25 03:42:00;;;;;;;;;16.00;14.25;;;;;12.48;70.20;101233.41;5039420;28;10269;-65
2022/05/25 03:44:27;;;;;;;;;12.75;12.00;;;;;12.51;70.45;101233.00;5053927;28;10306;-66
2022/05/25 03:46:54;;;;;;;;;11.75;11.75;;;;;12.54;70.39;101237.19;5052857;28;10229;-65
2022/05/25 03:49:20;;;;;;;;;11.25;9.75;;;;;12.52;70.41;101245.47;5068877;28;10234;-65
2022/05/25 03:51:47;;;;;;;;;13.00;10.75;;;;;12.49;70.42;101242.34;5053403;28;10193;-64
2022/05/25 03:54:13;;;;;;;;;13.50;13.25;;;;;12.46;70.74;101234.63;5053280;28;10223;-65
2022/05/25 03:56:40;;;;;;;;;12.00;11.25;;;;;12.48;70.58;101246.91;5051317;28;10314;-64
2022/05/25 03:59:07;;;;;;;;;7.00;7.00;;;;;12.49;70.78;101245.88;5052371;28;10215;-63
2022/05/25 04:01:35;;;;;;;;;16.25;14.00;;;;;12.49;70.73;101248.56;5053230;28;10192;-64
2022/05/25 04:04:04;;;;;;;;;12.25;10.50;;;;;12.48;70.79;101246.91;5052159;28;10366;-65
2022/05/25 04:06:31;;;;;;;;;12.75;12.50;;;;;12.48;70.84;101248.78;5051911;28;10173;-63
2022/05/25 04:08:57;;;;;;;;;16.50;12.75;;;;;12.47;70.99;101247.91;5052074;28;11139;-66
2022/05/25 04:11:24;;;;;;;;;15.00;15.00;;;;;12.47;70.90;101250.63;5050656;28;12648;-64
2022/05/25 04:13:50;;;;;;;;;11.00;11.00;;;;;12.48;71.29;101241.50;5052038;28;10106;-65
2022/05/25 04:16:17;;;;;;;;;15.50;14.75;;;;;12.49;70.97;101242.34;5051324;28;10230;-65
2022/05/25 04:18:44;;;;;;;;;14.00;14.00;;;;;12.49;71.49;101245.03;5031932;28;10305;-66
2022/05/25 04:21:10;;;;;;;;;12.50;10.75;;;;;12.49;71.28;101256.66;5032252;28;10253;-64
2022/05/25 04:23:37;;;;;;;;;11.00;11.00;;;;;12.52;71.38;101258.16;5052695;28;10306;-64
2022/05/25 04:26:03;;;;;;;;;10.25;10.25;;;;;12.54;71.49;101256.91;5051629;28;10908;-63
2022/05/25 04:28:30;;;;;;;;;13.50;11.50;;;;;12.56;71.29;101252.16;5051139;28;9984;-64
2022/05/25 04:30:56;;;;;;;;;12.50;11.75;;;;;12.59;71.30;101256.31;5051610;28;10149;-65
2022/05/25 04:33:27;;;;;;;;;12.75;8.25;;;;;12.62;71.14;101261.31;5051230;28;10371;-64
2022/05/25 04:35:53;;;;;;;;;10.75;8.75;;;;;12.62;71.46;101253.22;5033032;28;10162;-64
2022/05/25 04:38:19;;;;;;;;;11.75;11.00;;;;;12.65;71.16;101257.41;5032487;28;10215;-64
2022/05/25 04:40:46;;;;;;;;;12.50;10.75;;;;;12.66;71.29;101243.69;5032520;28;10133;-64
2022/05/25 04:43:18;;;;;;;;;11.50;11.00;;;;;12.68;71.25;101244.34;5048410;28;10000;-63
2022/05/25 04:45:47;;;;;;;;;13.50;10.00;;;;;12.69;71.31;101242.47;5042724;28;10190;-65
2022/05/25 04:48:14;;;;;;;;;16.50;13.50;;;;;12.68;71.46;101238.94;5046952;28;10063;-65
2022/05/25 04:50:43;;;;;;;;;15.00;15.00;;;;;12.66;71.25;101246.41;5051335;28;10124;-64
2022/05/25 04:53:12;;;;;;;;;12.00;12.00;;;;;12.69;71.11;101240.59;5050860;28;10087;-65
2022/05/25 04:58:28;;;;;;;;;11.75;9.75;;;;;12.74;71.40;101234.59;5048836;28;9898;-64
2022/05/25 05:00:55;;;;;;;;;12.25;12.25;;;;;12.76;71.35;101237.91;5051082;28;10173;-63
2022/05/25 05:03:23;;;;;;;;;18.75;18.25;;;;;12.77;71.27;101231.50;5050992;28;10103;-65
2022/05/25 05:05:50;;;;;;;;;13.75;12.00;;;;;12.74;71.15;101235.44;5051109;28;10220;-64
2022/05/25 05:08:17;;;;;;;;;16.50;14.75;;;;;12.72;71.26;101233.94;5050304;28;10156;-62
2022/05/25 05:10:44;;;;;;;;;12.75;12.25;;;;;12.74;71.28;101235.44;5049347;28;10933;-65
2022/05/25 05:13:11;;;;;;;;;15.75;15.75;;;;;12.72;71.52;101234.81;5050312;28;10087;-64
2022/05/25 05:15:40;;;;;;;;;17.75;15.50;;;;;12.76;71.36;101236.09;5050592;28;11112;-64
2022/05/25 05:18:08;;;;;;;;;11.50;10.25;;;;;12.75;71.63;101239.78;5050077;28;10153;-65
2022/05/25 05:20:56;;;;;;;;;11.25;11.25;;;;;12.80;71.68;101247.31;5065934;28;10009;-65
2022/05/25 05:23:22;;;;;;;;;14.75;12.50;;;;;12.85;71.76;101242.16;5050489;28;10019;-64
2022/05/25 05:25:49;;;;;;;;;13.75;12.50;;;;;12.86;71.38;101241.13;5050602;28;10007;-65
2022/05/25 05:28:19;;;;;;;;;12.00;11.75;;;;;12.91;71.64;101244.03;5041799;28;9994;-64
2022/05/25 05:30:52;;;;;;;;;21.00;17.25;;;;;12.96;71.44;101241.56;5031687;28;10073;-63
2022/05/25 05:33:21;;;;;;;;;15.00;13.25;;;;;12.99;71.33;101238.47;5049494;28;10097;-63
2022/05/25 05:36:00;;;;;;;;;17.75;13.75;;;;;13.02;71.46;101251.59;5048916;28;10908;-62
2022/05/25 05:38:28;;;;;;;;;11.50;11.00;;;;;13.02;71.20;101248.06;5050532;28;10003;-64
2022/05/25 05:40:55;;;;;;;;;14.75;13.75;;;;;13.02;71.63;101248.88;5051143;28;9990;-64
2022/05/25 05:43:22;;;;;;;;;17.75;13.50;;;;;13.03;71.38;101260.53;5051147;28;10071;-63
2022/05/25 05:45:51;;;;;;;;;17.25;14.00;;;;;13.01;71.97;101255.34;5051500;28;10165;-64
2022/05/25 05:48:24;;;;;;;;;13.25;12.25;;;;;13.05;71.52;101253.06;5050825;28;10794;-65
2022/05/25 05:50:56;;;;;;;;;11.75;11.25;;;;;13.07;71.43;101261.78;5049081;28;10089;-65
2022/05/25 05:53:26;;;;;;;;;16.50;14.00;;;;;13.05;71.84;101263.88;5050085;28;9856;-65
2022/05/25 05:55:53;;;;;;;;;12.00;11.50;;;;;13.09;71.82;101273.25;5049088;28;10035;-66
2022/05/25 05:58:20;;;;;;;;;11.50;11.50;;;;;13.14;72.07;101275.34;5029672;28;9998;-65
2022/05/25 06:00:46;;;;;;;;;17.75;16.25;;;;;13.15;72.06;101274.31;5034534;28;10134;-64
2022/05/25 06:03:14;;;;;;;;;18.00;17.00;;;;;13.18;72.18;101277.44;5036636;28;10023;-62
2022/05/25 06:05:43;;;;;;;;;14.00;14.00;;;;;13.22;72.00;101264.38;5036722;28;10249;-65
2022/05/25 06:08:18;;;;;;;;;16.00;14.00;;;;;13.29;72.12;101266.09;5036232;28;10083;-64
2022/05/25 06:10:45;;;;;;;;;14.25;14.25;;;;;13.33;72.03;101261.97;5036641;28;10071;-65
2022/05/25 06:13:12;;;;;;;;;15.00;13.75;;;;;13.40;71.87;101272.78;5036463;28;9929;-64
2022/05/25 06:21:16;;;;;;;;;23.25;21.50;;;;;13.47;71.90;101272.81;5036530;28;9964;-64
2022/05/25 06:23:43;;;;;;;;;23.75;22.75;;;;;13.48;71.67;101283.41;5040736;28;10239;-65
2022/05/25 06:26:10;;;;;;;;;25.25;24.00;;;;;13.48;72.02;101280.72;5056307;28;10258;-65
2022/05/25 06:28:36;;;;;;;;;27.50;21.75;;;;;13.55;72.10;101280.75;5056218;28;10406;-65
2022/05/25 06:31:03;;;;;;;;;25.25;21.50;;;;;13.63;71.89;101287.84;5056456;28;10179;-65
2022/05/25 06:33:29;;;;;;;;;24.00;24.00;;;;;13.58;71.67;101291.16;5056547;28;10295;-65
2022/05/25 06:36:18;;;;;;;;;24.75;24.00;;;;;13.59;71.80;101288.25;5056386;28;10930;-63
2022/05/25 06:38:45;;;;;;;;;32.25;28.00;;;;;13.61;71.28;101282.63;5055510;28;10366;-65
2022/05/25 06:41:12;;;;;;;;;32.25;31.75;;;;;13.61;71.36;101288.03;5056313;28;10458;-65
2022/05/25 06:43:39;;;;;;;;;32.75;29.75;;;;;13.63;71.36;101293.25;5056325;28;10624;-66
2022/05/25 06:46:07;;;;;;;;;52.25;40.25;;;;;13.69;71.34;101289.72;5056299;28;11170;-66
2022/05/25 06:48:47;;;;;;;;;35.00;31.75;;;;;13.74;71.26;101298.91;5055895;28;10468;-66
2022/05/25 06:51:22;;;;;;;;;29.50;26.75;;;;;13.79;71.38;101298.31;5056140;28;10502;-65
2022/05/25 06:53:49;;;;;;;;;38.25;36.75;;;;;13.79;71.01;101304.53;5056587;28;10476;-65
2022/05/25 06:56:22;;;;;;;;;33.00;31.75;;;;;13.74;70.97;101304.34;5039672;28;10525;-64
2022/05/25 06:58:48;;;;;;;;;33.50;32.50;;;;;13.68;71.12;101301.59;5047249;28;10427;-65
2022/05/25 07:01:15;;;;;;;;;36.75;31.50;;;;;13.71;71.00;101307.44;5056102;28;10497;-65
2022/05/25 07:03:43;;;;;;;;;32.50;32.50;;;;;13.71;71.00;101306.59;5056246;28;10496;-65
2022/05/25 07:06:10;;;;;;;;;37.75;32.00;;;;;13.72;70.79;101313.69;5056331;28;10626;-65
2022/05/25 07:08:37;;;;;;;;;45.25;37.00;;;;;13.76;70.93;101314.94;5056192;28;10603;-66
2022/05/25 07:11:05;;;;;;;;;47.00;39.50;;;;;13.84;70.48;101318.28;5056151;28;10719;-66
2022/05/25 07:13:32;;;;;;;;;41.25;36.75;;;;;13.96;70.17;101320.41;5038249;28;11036;-65
2022/05/25 07:16:05;;;;;;;;;39.50;31.50;;;;;14.10;70.26;101327.53;5034223;28;10734;-65
2022/05/25 07:18:32;;;;;;;;;39.50;35.50;;;;;14.18;69.89;101323.75;5032816;28;10527;-65
2022/05/25 07:21:09;;;;;;;;;32.00;31.25;;;;;14.22;69.84;101330.44;5032757;28;10372;-66
2022/05/25 07:23:37;;;;;;;;;29.50;27.00;;;;;14.19;69.52;101325.47;5032942;28;10512;-66
2022/05/25 07:26:06;;;;;;;;;38.25;35.00;;;;;14.15;69.24;101318.78;5032946;28;10945;-66
2022/05/25 07:28:34;;;;;;;;;36.00;34.00;;;;;14.18;69.67;101329.19;5032962;28;11518;-66
2022/05/25 07:31:05;;;;;;;;;35.75;31.75;;;;;14.24;69.61;101339.19;5032710;28;10497;-67
2022/05/25 07:33:34;;;;;;;;;33.75;32.75;;;;;14.28;69.48;101332.34;5032968;28;10585;-66
2022/05/25 07:36:02;;;;;;;;;31.50;29.00;;;;;14.33;69.35;101336.06;5032423;28;10584;-66
2022/05/25 07:38:30;;;;;;;;;38.00;32.50;;;;;14.35;68.98;101344.84;5031806;28;10354;-65
2022/05/25 07:40:59;;;;;;;;;44.00;37.50;;;;;14.37;68.81;101336.50;5032240;28;10554;-64
2022/05/25 07:43:29;;;;;;;;;36.25;33.00;;;;;14.37;68.54;101341.09;5044883;28;10729;-65
2022/05/25 07:45:56;;;;;;;;;40.50;36.00;;;;;14.41;68.53;101335.03;5048892;28;10411;-64
2022/05/25 07:48:22;;;;;;;;;35.25;33.50;;;;;14.51;68.12;101340.09;5033988;28;10548;-65
2022/05/25 07:50:49;;;;;;;;;37.50;36.75;;;;;14.57;67.78;101344.66;5043400;28;10684;-65
2022/05/25 07:56:03;;;;;;;;;38.75;36.00;;;;;14.59;67.54;101338.00;5031378;28;10708;-64
2022/05/25 07:58:30;;;;;;;;;32.50;28.00;;;;;14.66;67.38;101339.88;5032617;28;10461;-65
2022/05/25 08:01:02;;;;;;;;;33.50;32.50;;;;;14.70;67.46;101341.94;5032052;28;10262;-65
2022/05/25 08:06:14;;;;;;;;;45.00;38.75;;;;;14.66;66.81;101342.59;5033094;28;10533;-64
2022/05/25 08:08:43;;;;;;;;;38.00;33.50;;;;;14.68;67.09;101340.50;5031768;28;10580;-65
2022/05/25 08:11:13;;;;;;;;;42.50;36.75;;;;;14.74;66.88;101318.81;5031924;28;10313;-65
2022/05/25 08:13:43;;;;;;;;;37.00;36.00;;;;;14.83;67.16;101331.13;5031741;28;10644;-65
2022/05/25 08:16:10;;;;;;;;;32.75;32.50;;;;;14.99;66.78;101329.84;5046854;28;10546;-63
2022/05/25 08:18:37;;;;;;;;;34.00;28.00;;;;;15.23;66.63;101320.19;5051061;28;10495;-64
2022/05/25 08:21:05;;;;;;;;;33.75;29.50;;;;;15.44;65.98;101329.94;5051586;28;10131;-65
2022/05/25 08:23:31;;;;;;;;;39.25;34.50;;;;;15.55;65.95;101331.94;5051092;28;10262;-65
2022/05/25 08:25:58;;;;;;;;;38.00;34.50;;;;;15.54;65.42;101335.72;5051780;28;11270;-66
2022/05/25 08:28:24;;;;;;;;;40.25;37.25;;;;;15.44;65.64;101335.34;5050968;28;10244;-65
2022/05/25 08:30:51;;;;;;;;;45.00;37.50;;;;;15.41;65.68;101324.09;5051485;28;10317;-65
2022/05/25 08:33:20;;;;;;;;;34.50;31.50;;;;;15.53;65.98;101327.81;5034492;28;10245;-65
2022/05/25 08:35:48;;;;;;;;;35.75;31.50;;;;;15.48;65.11;101320.31;5031728;28;10129;-66
2022/05/25 08:38:14;;;;;;;;;40.25;35.50;;;;;15.50;65.68;101333.66;5030957;28;10085;-65
2022/05/25 08:40:42;;;;;;;;;41.00;37.25;;;;;15.54;65.14;101333.00;5031249;28;10159;-66
2022/05/25 08:43:24;;;;;;;;;26.25;25.25;;;;;15.61;64.87;101327.56;5031299;28;10549;-66
2022/05/25 08:45:59;;;;;;;;;33.00;30.25;;;;;15.63;64.98;101328.16;5031334;28;10631;-67
2022/05/25 08:48:27;;;;;;;;;34.75;31.00;;;;;15.68;64.65;101322.97;5035623;28;9926;-66
2022/05/25 08:50:59;;;;;;;;;28.25;26.50;;;;;15.67;63.50;101334.03;5051851;28;9866;-65
2022/05/25 08:53:33;;;;;;;;;27.25;25.50;;;;;15.66;63.34;101332.38;5052078;28;9902;-65
2022/05/25 08:56:12;;;;;;;;;27.25;22.50;;;;;15.57;62.49;101334.47;5051406;28;10436;-66
2022/05/25 08:59:04;;;;;;;;;17.75;17.25;;;;;15.72;62.33;101326.09;5050651;28;10479;-65
2022/05/25 09:01:43;;;;;;;;;18.00;16.00;;;;;15.80;61.44;101331.28;5043813;28;9442;-66
2022/05/25 09:04:45;;;;;;;;;20.25;20.25;;;;;15.95;60.73;101322.81;5036309;28;9587;-66
2022/05/25 09:07:37;;;;;;;;;17.25;15.25;;;;;16.00;59.97;101325.69;5008085;28;9625;-66
2022/05/25 09:10:05;;;;;;;;;17.25;14.75;;;;;16.09;59.99;101324.41;5031310;28;9511;-65
2022/05/25 09:12:46;;;;;;;;;16.00;15.25;;;;;16.07;59.75;101323.78;5031533;28;9568;-65
2022/05/25 09:15:19;;;;;;;;;14.75;12.50;;;;;16.07;58.68;101330.03;5030850;28;9366;-66
2022/05/25 09:18:05;;;;;;;;;12.00;12.00;;;;;16.00;58.21;101333.84;5031098;28;10178;-66
2022/05/25 09:20:42;;;;;;;;;11.00;10.00;;;;;15.90;58.87;101328.91;5030544;28;9364;-66
2022/05/25 09:23:12;;;;;;;;;14.00;14.00;;;;;15.91;58.81;101336.00;5030548;28;9441;-66
2022/05/25 09:25:40;;;;;;;;;9.67;9.00;;;;;15.95;58.41;101326.34;5030521;28;9307;-66
2022/05/25 09:28:19;;;;;;;;;6.00;5.00;;;;;16.02;58.15;101335.31;5029517;28;9404;-66
2022/05/25 09:30:50;;;;;;;;;2.33;2.00;;;;;15.95;56.18;101326.34;5030477;28;9296;-66
2022/05/25 09:33:40;;;;;;;;;2.00;1.67;;;;;15.93;55.74;101333.91;5032040;28;9003;-64
2022/05/25 09:36:12;;;;;;;;;3.00;2.00;;;;;16.00;55.66;101336.56;5030954;28;9096;-65
2022/05/25 09:39:03;;;;;;;;;1.00;1.00;;;;;16.14;55.78;101335.44;5030101;28;8989;-66
2022/05/25 09:41:31;;;;;;;;;0.00;0.00;;;;;16.15;54.35;101323.53;5030788;28;8997;-65
2022/05/25 09:44:00;;;;;;;;;0.00;0.00;;;;;16.10;54.01;101339.66;5031217;28;8898;-66
2022/05/25 09:46:50;;;;;;;;;0.33;0.33;;;;;16.00;52.04;101345.56;5040988;28;8907;-64
2022/05/25 09:49:44;;;;;;;;;0.67;0.67;;;;;15.88;51.60;101349.16;5050612;28;8909;-65
2022/05/25 09:52:19;;;;;;;;;0.50;0.00;;;;;15.78;51.56;101352.34;5050286;28;8994;-65
2022/05/25 09:54:52;;;;;;;;;0.00;0.00;;;;;15.94;52.23;101345.59;5065853;28;8918;-65
2022/05/25 09:57:26;;;;;;;;;0.00;0.00;;;;;15.91;50.75;101348.72;5050303;28;9087;-66
2022/05/25 10:00:00;;;;;;;;;1.00;1.00;;;;;15.93;51.75;101354.78;5047369;28;8973;-66
2022/05/25 10:02:57;;;;;;;;;0.00;0.00;;;;;16.00;50.85;101358.28;5031046;28;9004;-65
2022/05/25 10:05:27;;;;;;;;;0.67;0.67;;;;;16.01;51.49;101365.41;5026332;28;8918;-66
2022/05/25 10:07:55;;;;;;;;;0.00;0.00;;;;;15.93;50.83;101360.22;5029948;28;9009;-66
2022/05/25 10:10:31;;;;;;;;;0.00;0.00;;;;;15.96;50.82;101351.63;5030045;28;8978;-65
2022/05/25 10:13:21;;;;;;;;;0.00;0.00;;;;;16.07;50.90;101369.94;5029938;28;8906;-66
2022/05/25 10:15:51;;;;;;;;;1.00;1.00;;;;;16.00;50.87;101367.28;5030096;28;8840;-66
2022/05/25 10:18:37;;;;;;;;;0.00;0.00;;;;;15.94;51.25;101372.75;5029427;28;8979;-66
2022/05/25 10:21:07;;;;;;;;;0.67;0.67;;;;;15.92;51.78;101382.97;5030085;28;8944;-65
2022/05/25 10:23:39;;;;;;;;;0.00;0.00;;;;;15.89;51.11;101375.28;5031421;28;9059;-64
2022/05/25 10:26:17;;;;;;;;;1.00;0.00;;;;;15.81;50.81;101384.50;5030536;28;9046;-65
2022/05/25 10:28:45;;;;;;;;;1.00;1.00;;;;;15.82;50.89;101386.16;5029889;28;9002;-65
2022/05/25 10:37:06;;;;;;;;;0.00;0.00;;;;;15.90;50.11;101388.63;5029331;28;9018;-66
2022/05/25 10:39:36;;;;;;;;;0.00;0.00;;;;;15.98;49.93;101382.94;5030103;28;8836;-66
2022/05/25 10:42:12;;;;;;;;;0.00;0.00;;;;;16.16;50.15;101381.38;5028455;28;9013;-65
2022/05/25 10:44:43;;;;;;;;;1.00;0.00;;;;;16.33;49.42;101382.56;5047805;28;8924;-65
2022/05/25 10:47:27;;;;;;;;;0.00;0.00;;;;;16.54;49.40;101376.75;5052264;28;8834;-65
2022/05/25 10:49:54;;;;;;;;;0.00;0.00;;;;;16.73;49.45;101388.56;5053969;28;8837;-66
2022/05/25 10:52:32;;;;;;;;;0.00;0.00;;;;;16.80;48.25;101375.72;5053094;28;8830;-66
2022/05/25 10:54:58;;;;;;;;;0.00;0.00;;;;;16.86;47.16;101370.47;5054361;28;8818;-65
2022/05/25 10:57:52;;;;;;;;;0.00;0.00;;;;;16.69;45.97;101365.56;5051713;28;8850;-65
2022/05/25 11:00:46;;;;;;;;;0.25;0.00;;;;;16.79;46.46;101373.25;5053383;28;9547;-65
2022/05/25 11:03:27;;;;;;;;;0.00;0.00;;;;;16.82;45.46;101374.69;5053194;28;8809;-66
2022/05/25 11:06:04;;;;;;;;;0.75;0.00;;;;;16.89;45.68;101370.00;5053696;28;8919;-65
2022/05/25 11:08:42;;;;;;;;;1.00;1.00;;;;;16.94;46.05;101364.75;5053722;28;8833;-65
2022/05/25 11:11:18;;;;;;;;;0.75;0.00;;;;;17.05;46.50;101367.56;5053755;28;8840;-65
2022/05/25 11:14:02;;;;;;;;;0.00;0.00;;;;;17.11;46.06;101373.16;5035066;28;8837;-65
2022/05/25 11:16:44;;;;;;;;;0.00;0.00;;;;;17.09;46.18;101384.25;5032853;28;8851;-65
2022/05/25 11:19:29;;;;;;;;;0.00;0.00;;;;;17.05;45.75;101380.31;5034121;28;8848;-65
2022/05/25 11:22:01;;;;;;;;;1.50;1.00;;;;;17.07;45.84;101380.94;5034662;28;8825;-65
2022/05/25 11:24:36;;;;;;;;;0.00;0.00;;;;;17.15;46.86;101377.91;5034621;28;8886;-64
2022/05/25 11:27:31;;;;;;;;;0.00;0.00;;;;;17.24;46.19;101381.19;5034068;28;8828;-65
2022/05/25 11:30:30;;;;;;;;;0.75;0.75;;;;;17.35;46.69;101371.44;5034664;28;8836;-65
2022/05/25 11:33:13;;;;;;;;;0.00;0.00;;;;;17.51;46.35;101373.56;5015004;28;8844;-65
2022/05/25 11:35:42;;;;;;;;;0.00;0.00;;;;;17.47;45.59;101378.63;5033836;28;8813;-65
2022/05/25 11:38:23;;;;;;;;;0.25;0.25;;;;;17.49;45.89;101386.56;5015912;28;8902;-65
2022/05/25 11:41:11;;;;;;;;;0.00;0.00;;;;;17.40;46.56;101383.31;5048922;28;8829;-65
2022/05/25 11:44:09;;;;;;;;;0.00;0.00;;;;;17.47;47.05;101375.91;5053755;28;8901;-65
2022/05/25 11:46:47;;;;;;;;;0.25;0.00;;;;;17.60;47.54;101372.19;5053563;28;8833;-65
2022/05/25 11:49:43;;;;;;;;;0.00;0.00;;;;;17.61;47.30;101389.34;5053894;28;8818;-66
2022/05/25 11:52:48;;;;;;;;;0.00;0.00;;;;;17.61;47.03;101376.56;5052882;28;8830;-65
2022/05/25 11:55:47;;;;;;;;;0.00;0.00;;;;;17.57;46.82;101379.97;5052703;28;8822;-65
2022/05/25 11:58:42;;;;;;;;;0.00;0.00;;;;;17.39;46.86;101375.38;5051353;28;9626;-65
2022/05/25 12:01:37;;;;;;;;;0.75;0.50;;;;;17.44;46.82;101378.25;5052788;28;9258;-65
2022/05/25 12:04:30;;;;;;;;;1.00;0.00;;;;;17.45;47.36;101366.28;5052069;28;8830;-65
2022/05/25 12:07:32;;;;;;;;;0.00;0.00;;;;;17.59;46.73;101362.38;5051579;28;8826;-66